sensor_id;sensor_type;location;lat;lon;timestamp;P1;durP1;ratioP1;P2;durP2;ratioP2
11531;SDS011;5822;51.000;5.874;2023-09-18T00:02:24;9.40;;;9.00;;
11531;SDS011;5822;51.000;5.874;2023-09-18T00:04:50;9.15;;;8.75;;
11531;SDS011;5822;51.000;5.874;2023-09-18T00:07:17;10.10;;;9.70;;
11531;SDS011;5822;51.000;5.874;2023-09-18T00:09:42;10.07;;;9.68;;
11531;SDS011;5822;51.000;5.874;2023-09-18T00:12:08;10.20;;;9.80;;
11531;SDS011;5822;51.000;5.874;2023-09-18T00:14:34;10.13;;;9.73;;
11531;SDS011;5822;51.000;5.874;2023-09-18T00:17:01;10.25;;;9.85;;
11531;SDS011;5822;51.000;5.874;2023-09-18T00:19:26;10.18;;;9.77;;
11531;SDS011;5822;51.000;5.874;2023-09-18T00:21:52;10.50;;;10.10;;
11531;SDS011;5822;51.000;5.874;2023-09-18T00:24:19;10.48;;;10.00;;
11531;SDS011;5822;51.000;5.874;2023-09-18T00:26:45;10.15;;;9.75;;
11531;SDS011;5822;51.000;5.874;2023-09-18T00:29:13;10.17;;;9.77;;
11531;SDS011;5822;51.000;5.874;2023-09-18T00:31:39;9.93;;;9.52;;
11531;SDS011;5822;51.000;5.874;2023-09-18T00:34:04;10.30;;;9.80;;
11531;SDS011;5822;51.000;5.874;2023-09-18T00:36:30;10.00;;;9.60;;
11531;SDS011;5822;51.000;5.874;2023-09-18T00:38:55;10.10;;;9.70;;
11531;SDS011;5822;51.000;5.874;2023-09-18T00:41:21;10.30;;;9.90;;
11531;SDS011;5822;51.000;5.874;2023-09-18T00:43:47;10.65;;;10.15;;
11531;SDS011;5822;51.000;5.874;2023-09-18T00:46:12;10.23;;;9.73;;
11531;SDS011;5822;51.000;5.874;2023-09-18T00:48:38;10.50;;;10.03;;
11531;SDS011;5822;51.000;5.874;2023-09-18T00:51:05;10.18;;;9.75;;
11531;SDS011;5822;51.000;5.874;2023-09-18T00:53:33;10.23;;;9.82;;
11531;SDS011;5822;51.000;5.874;2023-09-18T00:55:59;10.00;;;9.60;;
11531;SDS011;5822;51.000;5.874;2023-09-18T00:58:27;10.23;;;9.82;;
11531;SDS011;5822;51.000;5.874;2023-09-18T01:00:53;10.07;;;9.67;;
11531;SDS011;5822;51.000;5.874;2023-09-18T01:03:19;10.50;;;10.00;;
11531;SDS011;5822;51.000;5.874;2023-09-18T01:05:46;10.57;;;10.07;;
11531;SDS011;5822;51.000;5.874;2023-09-18T01:08:12;10.30;;;9.80;;
11531;SDS011;5822;51.000;5.874;2023-09-18T01:10:44;10.50;;;10.00;;
11531;SDS011;5822;51.000;5.874;2023-09-18T01:13:40;10.07;;;9.65;;
11531;SDS011;5822;51.000;5.874;2023-09-18T01:16:22;10.60;;;10.10;;
11531;SDS011;5822;51.000;5.874;2023-09-18T01:18:52;10.10;;;9.60;;
11531;SDS011;5822;51.000;5.874;2023-09-18T01:21:21;10.43;;;9.97;;
11531;SDS011;5822;51.000;5.874;2023-09-18T01:23:47;10.25;;;9.75;;
11531;SDS011;5822;51.000;5.874;2023-09-18T01:26:14;10.53;;;10.03;;
11531;SDS011;5822;51.000;5.874;2023-09-18T01:28:39;10.70;;;10.20;;
11531;SDS011;5822;51.000;5.874;2023-09-18T01:31:05;10.88;;;10.38;;
11531;SDS011;5822;51.000;5.874;2023-09-18T01:33:31;10.40;;;9.90;;
11531;SDS011;5822;51.000;5.874;2023-09-18T01:35:58;10.18;;;9.70;;
11531;SDS011;5822;51.000;5.874;2023-09-18T01:38:25;9.80;;;9.40;;
11531;SDS011;5822;51.000;5.874;2023-09-18T01:40:52;10.00;;;9.60;;
11531;SDS011;5822;51.000;5.874;2023-09-18T01:43:19;10.02;;;9.52;;
11531;SDS011;5822;51.000;5.874;2023-09-18T01:45:45;10.30;;;9.80;;
11531;SDS011;5822;51.000;5.874;2023-09-18T01:48:12;10.32;;;9.82;;
11531;SDS011;5822;51.000;5.874;2023-09-18T01:50:38;10.48;;;9.98;;
11531;SDS011;5822;51.000;5.874;2023-09-18T01:53:07;10.13;;;9.70;;
11531;SDS011;5822;51.000;5.874;2023-09-18T01:55:33;10.17;;;9.67;;
11531;SDS011;5822;51.000;5.874;2023-09-18T01:57:58;10.02;;;9.52;;
11531;SDS011;5822;51.000;5.874;2023-09-18T02:00:24;10.02;;;9.52;;
11531;SDS011;5822;51.000;5.874;2023-09-18T02:02:50;10.10;;;9.60;;
11531;SDS011;5822;51.000;5.874;2023-09-18T02:05:15;9.45;;;9.05;;
11531;SDS011;5822;51.000;5.874;2023-09-18T02:07:41;9.80;;;9.40;;
11531;SDS011;5822;51.000;5.874;2023-09-18T02:10:07;10.00;;;9.50;;
11531;SDS011;5822;51.000;5.874;2023-09-18T02:12:33;9.82;;;9.43;;
11531;SDS011;5822;51.000;5.874;2023-09-18T02:14:59;10.13;;;9.68;;
11531;SDS011;5822;51.000;5.874;2023-09-18T02:17:29;9.30;;;8.90;;
11531;SDS011;5822;51.000;5.874;2023-09-18T02:19:55;9.68;;;9.27;;
11531;SDS011;5822;51.000;5.874;2023-09-18T02:22:21;9.77;;;9.32;;
11531;SDS011;5822;51.000;5.874;2023-09-18T02:24:46;10.00;;;9.50;;
11531;SDS011;5822;51.000;5.874;2023-09-18T02:27:12;10.20;;;9.70;;
11531;SDS011;5822;51.000;5.874;2023-09-18T02:29:38;10.10;;;9.60;;
11531;SDS011;5822;51.000;5.874;2023-09-18T02:32:03;9.68;;;9.27;;
11531;SDS011;5822;51.000;5.874;2023-09-18T02:34:29;9.73;;;9.33;;
11531;SDS011;5822;51.000;5.874;2023-09-18T02:36:55;10.00;;;9.50;;
11531;SDS011;5822;51.000;5.874;2023-09-18T02:39:20;9.52;;;9.05;;
11531;SDS011;5822;51.000;5.874;2023-09-18T02:41:46;9.60;;;9.20;;
11531;SDS011;5822;51.000;5.874;2023-09-18T02:44:12;9.57;;;9.18;;
11531;SDS011;5822;51.000;5.874;2023-09-18T02:46:37;9.57;;;9.13;;
11531;SDS011;5822;51.000;5.874;2023-09-18T02:49:03;9.85;;;9.45;;
11531;SDS011;5822;51.000;5.874;2023-09-18T02:51:29;9.95;;;9.55;;
11531;SDS011;5822;51.000;5.874;2023-09-18T02:53:56;10.10;;;9.60;;
11531;SDS011;5822;51.000;5.874;2023-09-18T02:56:22;9.77;;;9.38;;
11531;SDS011;5822;51.000;5.874;2023-09-18T02:58:48;10.60;;;10.00;;
11531;SDS011;5822;51.000;5.874;2023-09-18T03:01:32;10.30;;;9.80;;
11531;SDS011;5822;51.000;5.874;2023-09-18T03:04:04;10.50;;;10.00;;
11531;SDS011;5822;51.000;5.874;2023-09-18T03:06:30;10.20;;;9.80;;
11531;SDS011;5822;51.000;5.874;2023-09-18T03:08:55;10.40;;;9.90;;
11531;SDS011;5822;51.000;5.874;2023-09-18T03:11:21;10.27;;;9.77;;
11531;SDS011;5822;51.000;5.874;2023-09-18T03:13:47;10.48;;;9.98;;
11531;SDS011;5822;51.000;5.874;2023-09-18T03:16:12;10.17;;;9.70;;
11531;SDS011;5822;51.000;5.874;2023-09-18T03:18:38;10.18;;;9.68;;
11531;SDS011;5822;51.000;5.874;2023-09-18T03:21:04;9.83;;;9.43;;
11531;SDS011;5822;51.000;5.874;2023-09-18T03:23:30;10.00;;;9.50;;
11531;SDS011;5822;51.000;5.874;2023-09-18T03:25:56;9.70;;;9.30;;
11531;SDS011;5822;51.000;5.874;2023-09-18T03:28:21;10.40;;;9.90;;
11531;SDS011;5822;51.000;5.874;2023-09-18T03:30:47;10.10;;;9.60;;
11531;SDS011;5822;51.000;5.874;2023-09-18T03:33:12;10.27;;;9.77;;
11531;SDS011;5822;51.000;5.874;2023-09-18T03:35:48;9.95;;;9.50;;
11531;SDS011;5822;51.000;5.874;2023-09-18T03:38:14;9.98;;;9.57;;
11531;SDS011;5822;51.000;5.874;2023-09-18T03:40:40;10.10;;;9.60;;
11531;SDS011;5822;51.000;5.874;2023-09-18T03:43:06;10.13;;;9.63;;
11531;SDS011;5822;51.000;5.874;2023-09-18T03:45:32;10.00;;;9.60;;
11531;SDS011;5822;51.000;5.874;2023-09-18T03:47:58;10.48;;;9.88;;
11531;SDS011;5822;51.000;5.874;2023-09-18T03:50:23;10.27;;;9.77;;
11531;SDS011;5822;51.000;5.874;2023-09-18T03:52:49;9.73;;;9.25;;
11531;SDS011;5822;51.000;5.874;2023-09-18T03:55:14;10.30;;;9.80;;
11531;SDS011;5822;51.000;5.874;2023-09-18T03:57:41;10.00;;;9.50;;
11531;SDS011;5822;51.000;5.874;2023-09-18T04:00:08;10.13;;;9.70;;
11531;SDS011;5822;51.000;5.874;2023-09-18T04:02:34;10.43;;;9.93;;
11531;SDS011;5822;51.000;5.874;2023-09-18T04:05:00;10.40;;;9.90;;
11531;SDS011;5822;51.000;5.874;2023-09-18T04:07:26;10.50;;;10.00;;
11531;SDS011;5822;51.000;5.874;2023-09-18T04:09:51;10.40;;;9.90;;
11531;SDS011;5822;51.000;5.874;2023-09-18T04:12:17;10.00;;;9.60;;
11531;SDS011;5822;51.000;5.874;2023-09-18T04:14:43;10.00;;;9.50;;
11531;SDS011;5822;51.000;5.874;2023-09-18T04:17:08;10.18;;;9.77;;
11531;SDS011;5822;51.000;5.874;2023-09-18T04:19:34;10.10;;;9.60;;
11531;SDS011;5822;51.000;5.874;2023-09-18T04:22:00;9.93;;;9.50;;
11531;SDS011;5822;51.000;5.874;2023-09-18T04:24:26;10.15;;;9.75;;
11531;SDS011;5822;51.000;5.874;2023-09-18T04:26:52;10.60;;;10.10;;
11531;SDS011;5822;51.000;5.874;2023-09-18T04:29:18;10.40;;;9.90;;
11531;SDS011;5822;51.000;5.874;2023-09-18T04:31:44;10.18;;;9.77;;
11531;SDS011;5822;51.000;5.874;2023-09-18T04:34:10;10.73;;;10.23;;
11531;SDS011;5822;51.000;5.874;2023-09-18T04:36:36;10.50;;;10.10;;
11531;SDS011;5822;51.000;5.874;2023-09-18T04:39:03;10.45;;;10.00;;
11531;SDS011;5822;51.000;5.874;2023-09-18T04:41:30;10.30;;;9.80;;
11531;SDS011;5822;51.000;5.874;2023-09-18T04:43:55;10.50;;;10.00;;
11531;SDS011;5822;51.000;5.874;2023-09-18T04:46:21;10.90;;;10.40;;
11531;SDS011;5822;51.000;5.874;2023-09-18T04:48:48;10.67;;;10.17;;
11531;SDS011;5822;51.000;5.874;2023-09-18T04:51:14;10.80;;;10.30;;
11531;SDS011;5822;51.000;5.874;2023-09-18T04:53:40;10.90;;;10.40;;
11531;SDS011;5822;51.000;5.874;2023-09-18T04:56:06;10.88;;;10.38;;
11531;SDS011;5822;51.000;5.874;2023-09-18T04:58:31;10.60;;;10.10;;
11531;SDS011;5822;51.000;5.874;2023-09-18T05:00:58;10.43;;;9.98;;
11531;SDS011;5822;51.000;5.874;2023-09-18T05:03:25;10.40;;;9.90;;
11531;SDS011;5822;51.000;5.874;2023-09-18T05:05:54;10.30;;;9.90;;
11531;SDS011;5822;51.000;5.874;2023-09-18T05:08:20;10.82;;;10.32;;
11531;SDS011;5822;51.000;5.874;2023-09-18T05:10:46;10.70;;;10.20;;
11531;SDS011;5822;51.000;5.874;2023-09-18T05:13:12;10.93;;;10.43;;
11531;SDS011;5822;51.000;5.874;2023-09-18T05:15:38;10.80;;;10.30;;
11531;SDS011;5822;51.000;5.874;2023-09-18T05:18:04;10.80;;;10.30;;
11531;SDS011;5822;51.000;5.874;2023-09-18T05:20:30;10.70;;;10.20;;
11531;SDS011;5822;51.000;5.874;2023-09-18T05:22:57;10.80;;;10.30;;
11531;SDS011;5822;51.000;5.874;2023-09-18T05:25:25;10.73;;;10.23;;
11531;SDS011;5822;51.000;5.874;2023-09-18T05:27:52;10.80;;;10.30;;
11531;SDS011;5822;51.000;5.874;2023-09-18T05:30:23;10.73;;;10.23;;
11531;SDS011;5822;51.000;5.874;2023-09-18T05:32:53;11.00;;;10.50;;
11531;SDS011;5822;51.000;5.874;2023-09-18T05:35:19;11.20;;;10.70;;
11531;SDS011;5822;51.000;5.874;2023-09-18T05:37:46;11.02;;;10.52;;
11531;SDS011;5822;51.000;5.874;2023-09-18T05:40:12;11.10;;;10.60;;
11531;SDS011;5822;51.000;5.874;2023-09-18T05:42:40;11.00;;;10.50;;
11531;SDS011;5822;51.000;5.874;2023-09-18T05:45:11;11.10;;;10.60;;
11531;SDS011;5822;51.000;5.874;2023-09-18T05:47:39;10.85;;;10.35;;
11531;SDS011;5822;51.000;5.874;2023-09-18T05:50:08;11.05;;;10.55;;
11531;SDS011;5822;51.000;5.874;2023-09-18T05:52:34;11.07;;;10.57;;
11531;SDS011;5822;51.000;5.874;2023-09-18T05:55:01;11.02;;;10.52;;
11531;SDS011;5822;51.000;5.874;2023-09-18T05:57:27;11.20;;;10.70;;
11531;SDS011;5822;51.000;5.874;2023-09-18T05:59:56;11.20;;;10.70;;
11531;SDS011;5822;51.000;5.874;2023-09-18T06:02:22;11.00;;;10.50;;
11531;SDS011;5822;51.000;5.874;2023-09-18T06:04:49;11.20;;;10.70;;
11531;SDS011;5822;51.000;5.874;2023-09-18T06:07:21;10.90;;;10.40;;
11531;SDS011;5822;51.000;5.874;2023-09-18T06:09:48;11.43;;;10.93;;
11531;SDS011;5822;51.000;5.874;2023-09-18T06:12:13;11.60;;;11.10;;
11531;SDS011;5822;51.000;5.874;2023-09-18T06:14:39;11.83;;;11.33;;
11531;SDS011;5822;51.000;5.874;2023-09-18T06:17:05;12.00;;;11.50;;
11531;SDS011;5822;51.000;5.874;2023-09-18T06:19:31;12.43;;;11.82;;
11531;SDS011;5822;51.000;5.874;2023-09-18T06:21:58;12.00;;;11.50;;
11531;SDS011;5822;51.000;5.874;2023-09-18T06:24:23;12.40;;;11.80;;
11531;SDS011;5822;51.000;5.874;2023-09-18T06:26:49;12.00;;;11.50;;
11531;SDS011;5822;51.000;5.874;2023-09-18T06:29:16;11.97;;;11.47;;
11531;SDS011;5822;51.000;5.874;2023-09-18T06:31:41;10.90;;;10.40;;
11531;SDS011;5822;51.000;5.874;2023-09-18T06:34:07;11.27;;;10.77;;
11531;SDS011;5822;51.000;5.874;2023-09-18T06:36:33;10.80;;;10.30;;
11531;SDS011;5822;51.000;5.874;2023-09-18T06:38:58;11.00;;;10.50;;
11531;SDS011;5822;51.000;5.874;2023-09-18T06:41:24;10.80;;;10.30;;
11531;SDS011;5822;51.000;5.874;2023-09-18T06:43:50;11.30;;;10.80;;
11531;SDS011;5822;51.000;5.874;2023-09-18T06:46:15;11.30;;;10.80;;
11531;SDS011;5822;51.000;5.874;2023-09-18T06:48:41;11.20;;;10.70;;
11531;SDS011;5822;51.000;5.874;2023-09-18T06:51:10;11.50;;;11.00;;
11531;SDS011;5822;51.000;5.874;2023-09-18T06:53:36;11.32;;;10.82;;
11531;SDS011;5822;51.000;5.874;2023-09-18T06:56:02;11.10;;;10.60;;
11531;SDS011;5822;51.000;5.874;2023-09-18T06:58:27;11.13;;;10.63;;
11531;SDS011;5822;51.000;5.874;2023-09-18T07:00:53;11.00;;;10.50;;
11531;SDS011;5822;51.000;5.874;2023-09-18T07:03:19;10.90;;;10.40;;
11531;SDS011;5822;51.000;5.874;2023-09-18T07:05:44;11.00;;;10.50;;
11531;SDS011;5822;51.000;5.874;2023-09-18T07:08:11;11.10;;;10.60;;
11531;SDS011;5822;51.000;5.874;2023-09-18T07:10:38;11.32;;;10.82;;
11531;SDS011;5822;51.000;5.874;2023-09-18T07:13:04;11.02;;;10.52;;
11531;SDS011;5822;51.000;5.874;2023-09-18T07:15:30;11.07;;;10.57;;
11531;SDS011;5822;51.000;5.874;2023-09-18T07:17:56;10.73;;;10.30;;
11531;SDS011;5822;51.000;5.874;2023-09-18T07:20:21;10.88;;;10.38;;
11531;SDS011;5822;51.000;5.874;2023-09-18T07:22:48;10.90;;;10.40;;
11531;SDS011;5822;51.000;5.874;2023-09-18T07:25:15;11.20;;;10.70;;
11531;SDS011;5822;51.000;5.874;2023-09-18T07:27:41;11.00;;;10.50;;
11531;SDS011;5822;51.000;5.874;2023-09-18T07:30:09;10.90;;;10.40;;
11531;SDS011;5822;51.000;5.874;2023-09-18T07:32:36;10.98;;;10.48;;
11531;SDS011;5822;51.000;5.874;2023-09-18T07:35:04;10.90;;;10.40;;
11531;SDS011;5822;51.000;5.874;2023-09-18T07:37:34;10.73;;;10.30;;
11531;SDS011;5822;51.000;5.874;2023-09-18T07:40:01;10.90;;;10.40;;
11531;SDS011;5822;51.000;5.874;2023-09-18T07:42:31;11.10;;;10.60;;
11531;SDS011;5822;51.000;5.874;2023-09-18T07:44:56;10.80;;;10.30;;
11531;SDS011;5822;51.000;5.874;2023-09-18T07:47:22;11.00;;;10.50;;
11531;SDS011;5822;51.000;5.874;2023-09-18T07:49:48;10.73;;;10.25;;
11531;SDS011;5822;51.000;5.874;2023-09-18T07:52:14;10.73;;;10.23;;
11531;SDS011;5822;51.000;5.874;2023-09-18T07:54:41;10.60;;;10.20;;
11531;SDS011;5822;51.000;5.874;2023-09-18T07:57:07;10.63;;;10.13;;
11531;SDS011;5822;51.000;5.874;2023-09-18T07:59:34;11.00;;;10.50;;
11531;SDS011;5822;51.000;5.874;2023-09-18T08:02:01;10.90;;;10.40;;
11531;SDS011;5822;51.000;5.874;2023-09-18T08:04:27;10.80;;;10.30;;
11531;SDS011;5822;51.000;5.874;2023-09-18T08:06:52;10.80;;;10.30;;
11531;SDS011;5822;51.000;5.874;2023-09-18T08:09:18;11.20;;;10.60;;
11531;SDS011;5822;51.000;5.874;2023-09-18T08:11:44;10.70;;;10.20;;
11531;SDS011;5822;51.000;5.874;2023-09-18T08:14:09;10.50;;;10.05;;
11531;SDS011;5822;51.000;5.874;2023-09-18T08:16:37;10.90;;;10.40;;
11531;SDS011;5822;51.000;5.874;2023-09-18T08:19:03;10.85;;;10.40;;
11531;SDS011;5822;51.000;5.874;2023-09-18T08:21:29;11.43;;;10.82;;
11531;SDS011;5822;51.000;5.874;2023-09-18T08:23:55;11.20;;;10.70;;
11531;SDS011;5822;51.000;5.874;2023-09-18T08:26:21;11.20;;;10.70;;
11531;SDS011;5822;51.000;5.874;2023-09-18T08:28:50;11.20;;;10.70;;
11531;SDS011;5822;51.000;5.874;2023-09-18T08:31:16;11.10;;;10.60;;
11531;SDS011;5822;51.000;5.874;2023-09-18T08:33:45;11.30;;;10.80;;
11531;SDS011;5822;51.000;5.874;2023-09-18T08:36:10;11.13;;;10.60;;
11531;SDS011;5822;51.000;5.874;2023-09-18T08:38:37;11.10;;;10.60;;
11531;SDS011;5822;51.000;5.874;2023-09-18T08:41:03;11.10;;;10.60;;
11531;SDS011;5822;51.000;5.874;2023-09-18T08:43:31;10.90;;;10.40;;
11531;SDS011;5822;51.000;5.874;2023-09-18T08:45:57;11.00;;;10.50;;
11531;SDS011;5822;51.000;5.874;2023-09-18T08:48:26;11.27;;;10.77;;
11531;SDS011;5822;51.000;5.874;2023-09-18T08:51:02;11.00;;;10.50;;
11531;SDS011;5822;51.000;5.874;2023-09-18T08:53:30;11.10;;;10.60;;
11531;SDS011;5822;51.000;5.874;2023-09-18T08:55:57;11.00;;;10.50;;
11531;SDS011;5822;51.000;5.874;2023-09-18T08:58:26;10.73;;;10.23;;
11531;SDS011;5822;51.000;5.874;2023-09-18T09:00:55;11.70;;;11.10;;
11531;SDS011;5822;51.000;5.874;2023-09-18T09:03:21;11.50;;;10.90;;
11531;SDS011;5822;51.000;5.874;2023-09-18T09:05:47;11.30;;;10.80;;
11531;SDS011;5822;51.000;5.874;2023-09-18T09:08:13;11.40;;;10.90;;
11531;SDS011;5822;51.000;5.874;2023-09-18T09:10:39;11.40;;;10.90;;
11531;SDS011;5822;51.000;5.874;2023-09-18T09:13:06;11.20;;;10.70;;
11531;SDS011;5822;51.000;5.874;2023-09-18T09:15:32;11.50;;;11.00;;
11531;SDS011;5822;51.000;5.874;2023-09-18T09:18:10;12.20;;;11.60;;
11531;SDS011;5822;51.000;5.874;2023-09-18T09:20:37;13.30;;;12.70;;
11531;SDS011;5822;51.000;5.874;2023-09-18T09:23:05;16.27;;;15.40;;
11531;SDS011;5822;51.000;5.874;2023-09-18T09:25:33;13.80;;;13.10;;
11531;SDS011;5822;51.000;5.874;2023-09-18T09:28:03;12.95;;;12.35;;
11531;SDS011;5822;51.000;5.874;2023-09-18T09:30:30;12.60;;;12.00;;
11531;SDS011;5822;51.000;5.874;2023-09-18T09:32:57;12.30;;;11.80;;
11531;SDS011;5822;51.000;5.874;2023-09-18T09:35:25;12.30;;;11.80;;
11531;SDS011;5822;51.000;5.874;2023-09-18T09:38:08;11.98;;;11.48;;
11531;SDS011;5822;51.000;5.874;2023-09-18T09:40:38;12.40;;;11.90;;
11531;SDS011;5822;51.000;5.874;2023-09-18T09:43:11;12.68;;;12.07;;
11531;SDS011;5822;51.000;5.874;2023-09-18T09:45:40;12.70;;;12.10;;
11531;SDS011;5822;51.000;5.874;2023-09-18T09:48:06;12.20;;;11.70;;
11531;SDS011;5822;51.000;5.874;2023-09-18T09:50:34;12.20;;;11.70;;
11531;SDS011;5822;51.000;5.874;2023-09-18T09:53:11;12.20;;;11.70;;
11531;SDS011;5822;51.000;5.874;2023-09-18T09:55:38;12.70;;;12.10;;
11531;SDS011;5822;51.000;5.874;2023-09-18T09:58:04;12.80;;;12.20;;
11531;SDS011;5822;51.000;5.874;2023-09-18T10:00:35;12.45;;;11.95;;
11531;SDS011;5822;51.000;5.874;2023-09-18T10:03:12;12.88;;;12.27;;
11531;SDS011;5822;51.000;5.874;2023-09-18T10:05:39;12.30;;;11.80;;
11531;SDS011;5822;51.000;5.874;2023-09-18T10:08:12;12.65;;;12.15;;
11531;SDS011;5822;51.000;5.874;2023-09-18T10:10:45;12.83;;;12.23;;
11531;SDS011;5822;51.000;5.874;2023-09-18T10:13:15;12.30;;;11.80;;
11531;SDS011;5822;51.000;5.874;2023-09-18T10:15:47;12.60;;;12.00;;
11531;SDS011;5822;51.000;5.874;2023-09-18T10:18:26;12.70;;;12.10;;
11531;SDS011;5822;51.000;5.874;2023-09-18T10:26:32;12.10;;;11.60;;
11531;SDS011;5822;51.000;5.874;2023-09-18T10:29:03;12.40;;;11.90;;
11531;SDS011;5822;51.000;5.874;2023-09-18T10:31:34;12.75;;;12.15;;
11531;SDS011;5822;51.000;5.874;2023-09-18T10:34:02;13.00;;;12.40;;
11531;SDS011;5822;51.000;5.874;2023-09-18T10:36:30;12.80;;;12.20;;
11531;SDS011;5822;51.000;5.874;2023-09-18T10:38:57;13.30;;;12.70;;
11531;SDS011;5822;51.000;5.874;2023-09-18T10:41:25;13.00;;;12.40;;
11531;SDS011;5822;51.000;5.874;2023-09-18T10:43:53;12.90;;;12.30;;
11531;SDS011;5822;51.000;5.874;2023-09-18T10:46:22;12.90;;;12.30;;
11531;SDS011;5822;51.000;5.874;2023-09-18T10:48:50;13.25;;;12.65;;
11531;SDS011;5822;51.000;5.874;2023-09-18T10:51:19;13.10;;;12.40;;
11531;SDS011;5822;51.000;5.874;2023-09-18T10:53:47;12.90;;;12.40;;
11531;SDS011;5822;51.000;5.874;2023-09-18T10:56:16;13.48;;;12.70;;
11531;SDS011;5822;51.000;5.874;2023-09-18T10:58:42;12.80;;;12.20;;
11531;SDS011;5822;51.000;5.874;2023-09-18T11:01:11;13.30;;;12.70;;
11531;SDS011;5822;51.000;5.874;2023-09-18T11:03:37;13.68;;;13.00;;
11531;SDS011;5822;51.000;5.874;2023-09-18T11:06:04;13.48;;;12.88;;
11531;SDS011;5822;51.000;5.874;2023-09-18T11:08:32;13.00;;;12.40;;
11531;SDS011;5822;51.000;5.874;2023-09-18T11:11:05;13.45;;;12.75;;
11531;SDS011;5822;51.000;5.874;2023-09-18T11:13:40;13.40;;;12.80;;
11531;SDS011;5822;51.000;5.874;2023-09-18T11:16:18;13.10;;;12.50;;
11531;SDS011;5822;51.000;5.874;2023-09-18T11:18:54;13.40;;;12.80;;
11531;SDS011;5822;51.000;5.874;2023-09-18T11:21:34;13.70;;;13.10;;
11531;SDS011;5822;51.000;5.874;2023-09-18T11:26:29;13.00;;;12.40;;
11531;SDS011;5822;51.000;5.874;2023-09-18T11:28:58;12.90;;;12.30;;
11531;SDS011;5822;51.000;5.874;2023-09-18T11:34:23;13.27;;;12.60;;
11531;SDS011;5822;51.000;5.874;2023-09-18T11:37:20;12.60;;;12.10;;
11531;SDS011;5822;51.000;5.874;2023-09-18T11:39:46;12.50;;;11.90;;
11531;SDS011;5822;51.000;5.874;2023-09-18T11:42:13;12.48;;;11.98;;
11531;SDS011;5822;51.000;5.874;2023-09-18T11:44:42;12.80;;;12.20;;
11531;SDS011;5822;51.000;5.874;2023-09-18T11:47:12;12.80;;;12.20;;
11531;SDS011;5822;51.000;5.874;2023-09-18T11:52:23;12.80;;;12.20;;
11531;SDS011;5822;51.000;5.874;2023-09-18T11:54:50;13.00;;;12.40;;
11531;SDS011;5822;51.000;5.874;2023-09-18T11:57:16;12.80;;;12.20;;
11531;SDS011;5822;51.000;5.874;2023-09-18T11:59:43;14.38;;;13.68;;
11531;SDS011;5822;51.000;5.874;2023-09-18T12:02:12;14.45;;;13.75;;
11531;SDS011;5822;51.000;5.874;2023-09-18T12:05:15;14.00;;;13.30;;
11531;SDS011;5822;51.000;5.874;2023-09-18T12:07:43;13.48;;;12.88;;
11531;SDS011;5822;51.000;5.874;2023-09-18T12:10:14;13.27;;;12.68;;
11531;SDS011;5822;51.000;5.874;2023-09-18T12:12:42;12.50;;;12.00;;
11531;SDS011;5822;51.000;5.874;2023-09-18T12:15:12;13.03;;;12.43;;
11531;SDS011;5822;51.000;5.874;2023-09-18T12:17:48;12.95;;;12.35;;
11531;SDS011;5822;51.000;5.874;2023-09-18T12:20:18;12.90;;;12.30;;
11531;SDS011;5822;51.000;5.874;2023-09-18T12:22:47;13.27;;;12.67;;
11531;SDS011;5822;51.000;5.874;2023-09-18T12:25:14;13.32;;;12.73;;
11531;SDS011;5822;51.000;5.874;2023-09-18T12:27:41;12.80;;;12.30;;
11531;SDS011;5822;51.000;5.874;2023-09-18T12:30:07;13.15;;;12.55;;
11531;SDS011;5822;51.000;5.874;2023-09-18T12:32:35;13.27;;;12.68;;
11531;SDS011;5822;51.000;5.874;2023-09-18T12:35:02;12.93;;;12.33;;
11531;SDS011;5822;51.000;5.874;2023-09-18T12:37:31;13.30;;;12.70;;
11531;SDS011;5822;51.000;5.874;2023-09-18T12:40:04;13.23;;;12.63;;
11531;SDS011;5822;51.000;5.874;2023-09-18T12:42:35;12.80;;;12.23;;
11531;SDS011;5822;51.000;5.874;2023-09-18T12:45:05;13.00;;;12.40;;
11531;SDS011;5822;51.000;5.874;2023-09-18T12:47:32;13.40;;;12.80;;
11531;SDS011;5822;51.000;5.874;2023-09-18T12:50:05;13.05;;;12.45;;
11531;SDS011;5822;51.000;5.874;2023-09-18T12:52:36;13.02;;;12.43;;
11531;SDS011;5822;51.000;5.874;2023-09-18T12:55:01;13.10;;;12.50;;
11531;SDS011;5822;51.000;5.874;2023-09-18T12:57:30;13.00;;;12.40;;
11531;SDS011;5822;51.000;5.874;2023-09-18T12:59:59;13.05;;;12.45;;
11531;SDS011;5822;51.000;5.874;2023-09-18T13:02:35;13.30;;;12.70;;
11531;SDS011;5822;51.000;5.874;2023-09-18T13:05:01;13.20;;;12.60;;
11531;SDS011;5822;51.000;5.874;2023-09-18T13:07:28;13.50;;;12.90;;
11531;SDS011;5822;51.000;5.874;2023-09-18T13:09:58;13.40;;;12.80;;
11531;SDS011;5822;51.000;5.874;2023-09-18T13:12:25;13.60;;;13.00;;
11531;SDS011;5822;51.000;5.874;2023-09-18T13:15:04;13.38;;;12.77;;
11531;SDS011;5822;51.000;5.874;2023-09-18T13:17:40;13.40;;;12.80;;
11531;SDS011;5822;51.000;5.874;2023-09-18T13:20:24;13.20;;;12.60;;
11531;SDS011;5822;51.000;5.874;2023-09-18T13:22:57;13.38;;;12.77;;
11531;SDS011;5822;51.000;5.874;2023-09-18T13:25:28;13.20;;;12.60;;
11531;SDS011;5822;51.000;5.874;2023-09-18T13:28:06;12.80;;;12.20;;
11531;SDS011;5822;51.000;5.874;2023-09-18T13:30:33;13.10;;;12.50;;
11531;SDS011;5822;51.000;5.874;2023-09-18T13:33:04;13.20;;;12.60;;
11531;SDS011;5822;51.000;5.874;2023-09-18T13:35:31;13.13;;;12.52;;
11531;SDS011;5822;51.000;5.874;2023-09-18T13:37:57;13.20;;;12.60;;
11531;SDS011;5822;51.000;5.874;2023-09-18T13:40:23;13.40;;;12.80;;
11531;SDS011;5822;51.000;5.874;2023-09-18T13:42:48;13.00;;;12.40;;
11531;SDS011;5822;51.000;5.874;2023-09-18T13:45:14;12.80;;;12.20;;
11531;SDS011;5822;51.000;5.874;2023-09-18T13:47:41;12.70;;;12.10;;
11531;SDS011;5822;51.000;5.874;2023-09-18T13:50:07;12.80;;;12.20;;
11531;SDS011;5822;51.000;5.874;2023-09-18T13:52:34;13.02;;;12.43;;
11531;SDS011;5822;51.000;5.874;2023-09-18T13:55:02;13.30;;;12.70;;
11531;SDS011;5822;51.000;5.874;2023-09-18T13:57:30;13.25;;;12.65;;
11531;SDS011;5822;51.000;5.874;2023-09-18T13:59:56;13.20;;;12.60;;
11531;SDS011;5822;51.000;5.874;2023-09-18T14:02:22;13.40;;;12.80;;
11531;SDS011;5822;51.000;5.874;2023-09-18T14:04:52;13.95;;;13.35;;
11531;SDS011;5822;51.000;5.874;2023-09-18T14:07:18;14.15;;;13.50;;
11531;SDS011;5822;51.000;5.874;2023-09-18T14:09:43;13.90;;;13.30;;
11531;SDS011;5822;51.000;5.874;2023-09-18T14:12:11;14.10;;;13.50;;
11531;SDS011;5822;51.000;5.874;2023-09-18T14:14:37;14.50;;;13.80;;
11531;SDS011;5822;51.000;5.874;2023-09-18T14:17:05;14.32;;;13.65;;
11531;SDS011;5822;51.000;5.874;2023-09-18T14:19:31;14.20;;;13.50;;
11531;SDS011;5822;51.000;5.874;2023-09-18T14:21:57;14.00;;;13.40;;
11531;SDS011;5822;51.000;5.874;2023-09-18T14:24:22;14.70;;;14.00;;
11531;SDS011;5822;51.000;5.874;2023-09-18T14:26:53;14.50;;;13.80;;
11531;SDS011;5822;51.000;5.874;2023-09-18T14:29:20;14.60;;;13.90;;
11531;SDS011;5822;51.000;5.874;2023-09-18T14:31:46;14.40;;;13.70;;
11531;SDS011;5822;51.000;5.874;2023-09-18T14:34:12;14.90;;;14.20;;
11531;SDS011;5822;51.000;5.874;2023-09-18T14:36:37;15.00;;;14.30;;
11531;SDS011;5822;51.000;5.874;2023-09-18T14:39:05;14.98;;;14.27;;
11531;SDS011;5822;51.000;5.874;2023-09-18T14:41:35;14.85;;;14.15;;
11531;SDS011;5822;51.000;5.874;2023-09-18T14:44:04;15.25;;;14.55;;
11531;SDS011;5822;51.000;5.874;2023-09-18T14:46:31;15.60;;;14.90;;
11531;SDS011;5822;51.000;5.874;2023-09-18T14:48:59;15.30;;;14.60;;
11531;SDS011;5822;51.000;5.874;2023-09-18T14:51:26;15.77;;;15.00;;
11531;SDS011;5822;51.000;5.874;2023-09-18T14:53:53;16.10;;;15.30;;
11531;SDS011;5822;51.000;5.874;2023-09-18T14:56:19;16.10;;;15.30;;